MA29 weather

Public forecast

Using degrees Fahrenheit for public forecast. Weather courtesy of forecast.io.

Closest aviation weather report (METAR) to Camp Edwards Heliport

Closest report is Cape Cod Coast Guard Air Station, 2.1 nm (3.9 km) ESE. Retrieved 2020/08/10 23:50 UTC (29 minutes ago):

KFMH 102350Z 22014KT 10SM BKN004 25/23 A2998

Closest aviation forecast (TAF) to Camp Edwards Heliport

Closest forecast is Cape Cod Coast Guard Air Station, 2.1 nm (3.9 km) ESE. Retrieved 2020-08-11 00:28 UTC (0 seconds ago):

TAF KFMH 102325Z 1100/1124 23014G22KT P6SM SKC FM110300 23008KT 5SM BR BKN040 FM110500 23007KT 4SM BR BKN008 FM111100 22007KT 5SM BR BKN050 FM111300 23008KT 6SM BR BKN100